This is the latest recevied weather packets stored in our database for station/object CE3EFJ-10. If no packets are shown the sender has not sent any weather packets the latest 10 day(s).
| Time | Temp. | Humidity | Pressure | Rain* | Wind** | Luminosity | Snow |
|---|---|---|---|---|---|---|---|
| 1787625017 | 10° C | 100% | 1025 hPa | - | - | - | - |
| 1787624117 | 10.56° C | 100% | 1024.7 hPa | - | - | - | - |
| 1787623216 | 10° C | 100% | 1025 hPa | - | - | - | - |
| 1787622316 | 9.44° C | 100% | 1025.4 hPa | - | - | - | - |
| 1787621416 | 9.44° C | 100% | 1024.7 hPa | - | - | - | - |
| 1787620516 | 8.89° C | 100% | 1025.4 hPa | - | - | - | - |
| 1787619616 | 10.56° C | 100% | 1023.7 hPa | - | - | - | - |
| 1787618715 | 7.78° C | 100% | 1025.6 hPa | - | - | - | - |
| 1787542788 | 13.33° C | 100% | 1021.9 hPa | - | - | - | - |
| 1787541888 | 13.89° C | 100% | 1021.8 hPa | - | - | - | - |
| 1787540988 | 12.22° C | 100% | 1021.9 hPa | - | - | - | - |
| 1787540088 | 10.56° C | 100% | 1022 hPa | - | - | - | - |
| 1787539188 | 11.67° C | 100% | 1022 hPa | - | - | - | - |
| 1787538288 | 14.44° C | 95% | 1021.9 hPa | - | - | - | - |
| 1787537388 | 14.44° C | 93% | 1021.9 hPa | - | - | - | - |
| 1787536487 | 14.44° C | 94% | 1022.1 hPa | - | - | - | - |
| 1787535587 | 15° C | 93% | 1022 hPa | - | - | - | - |
| 1787534687 | 14.44° C | 98% | 1022 hPa | - | - | - | - |
| 1787533787 | 14.44° C | 98% | 1022 hPa | - | - | - | - |
| 1787532887 | 13.89° C | 97% | 1021.9 hPa | - | - | - | - |
| 1787531987 | 14.44° C | 100% | 1022 hPa | - | - | - | - |
| 1787531087 | 13.33° C | 100% | 1022.2 hPa | - | - | - | - |
| 1787530186 | 14.44° C | 92% | 1022 hPa | - | - | - | - |
| 1787529286 | 15° C | 90% | 1021.6 hPa | - | - | - | - |
| 1787528386 | 13.89° C | 97% | 1022.1 hPa | - | - | - | - |
* Rain since midnight (hover to see other rain measurements)
** Current wind speed in m/s (hover to see current wind gust speed)